createdAt,value
2015-08-25T00:00:01.072Z,73747
2015-08-25T00:00:13.447Z,73749
2015-08-25T00:00:25.120Z,73744
2015-08-25T00:00:37.495Z,73745
2015-08-25T00:00:49.855Z,73741
2015-08-25T00:01:02.245Z,73739
2015-08-25T00:01:14.620Z,73741
2015-08-25T00:01:26.997Z,73739
2015-08-25T00:01:39.388Z,73744
2015-08-25T00:01:51.763Z,73746
2015-08-25T00:02:04.138Z,73749
2015-08-25T00:02:16.513Z,73750
2015-08-25T00:02:28.906Z,73746
2015-08-25T00:02:41.296Z,73751
2015-08-25T00:02:53.671Z,73750
2015-08-25T00:03:06.062Z,73749
2015-08-25T00:03:18.453Z,73750
2015-08-25T00:03:30.845Z,73758
2015-08-25T00:03:43.251Z,73757
2015-08-25T00:03:55.673Z,73758
2015-08-25T00:04:08.064Z,73759
2015-08-25T00:04:20.470Z,73756
2015-08-25T00:04:32.877Z,73756
2015-08-25T00:04:45.284Z,73754
2015-08-25T00:04:57.690Z,73747
2015-08-25T00:05:10.096Z,73743
2015-08-25T00:05:22.502Z,73740
2015-08-25T00:05:34.896Z,73734
2015-08-25T00:05:47.302Z,73735
2015-08-25T00:05:59.724Z,73732
2015-08-25T00:06:12.099Z,73735
2015-08-25T00:06:24.474Z,73733
2015-08-25T00:06:36.850Z,73737
2015-08-25T00:06:49.225Z,73737
2015-08-25T00:07:01.600Z,73737
2015-08-25T00:07:13.975Z,73739
2015-08-25T00:07:26.350Z,73740
2015-08-25T00:07:38.743Z,73739
2015-08-25T00:07:51.118Z,73738
2015-08-25T00:08:03.493Z,73739
2015-08-25T00:08:15.868Z,73743
2015-08-25T00:08:28.243Z,73745
2015-08-25T00:08:40.621Z,73739
2015-08-25T00:08:53.011Z,73744
2015-08-25T00:09:05.386Z,73743
2015-08-25T00:09:17.761Z,73747
2015-08-25T00:09:30.136Z,73747
2015-08-25T00:09:42.513Z,73747
2015-08-25T00:09:54.888Z,73748
2015-08-25T00:10:07.263Z,73746
2015-08-25T00:10:19.638Z,73744
2015-08-25T00:10:32.029Z,73743
2015-08-25T00:10:44.406Z,73744
2015-08-25T00:10:56.781Z,73743
2015-08-25T00:11:09.156Z,73744
2015-08-25T00:11:21.531Z,73745
2015-08-25T00:11:33.906Z,73746
2015-08-25T00:11:45.564Z,73748
2015-08-25T00:11:57.955Z,73748
2015-08-25T00:12:10.346Z,73752
2015-08-25T00:12:22.736Z,73748
2015-08-25T00:12:35.127Z,73750
2015-08-25T00:12:47.504Z,73746
2015-08-25T00:12:59.910Z,73751
2015-08-25T00:13:12.316Z,73748
2015-08-25T00:13:24.723Z,73752
2015-08-25T00:13:37.129Z,73749
2015-08-25T00:13:49.537Z,73747
2015-08-25T00:14:01.943Z,73749
2015-08-25T00:14:14.350Z,73747
2015-08-25T00:14:26.756Z,73746
2015-08-25T00:14:39.162Z,73748
2015-08-25T00:14:51.570Z,73747
2015-08-25T00:15:03.977Z,73743
2015-08-25T00:15:16.383Z,73743
2015-08-25T00:15:28.758Z,73742
2015-08-25T00:15:41.133Z,73742
2015-08-25T00:15:53.510Z,73743
2015-08-25T00:16:05.885Z,73747
2015-08-25T00:16:18.260Z,73744
2015-08-25T00:16:30.650Z,73745
2015-08-25T00:16:43.025Z,73744
2015-08-25T00:16:55.433Z,73747
2015-08-25T00:17:07.808Z,73747
2015-08-25T00:17:20.183Z,73748
2015-08-25T00:17:32.558Z,73749
2015-08-25T00:17:44.933Z,73747
2015-08-25T00:17:57.311Z,73751
2015-08-25T00:18:09.686Z,73750
2015-08-25T00:18:22.076Z,73748
2015-08-25T00:18:34.451Z,73750
2015-08-25T00:18:46.826Z,73751
2015-08-25T00:18:59.202Z,73750
2015-08-25T00:19:11.593Z,73753
2015-08-25T00:19:23.968Z,73754
2015-08-25T00:19:36.343Z,73753
2015-08-25T00:19:48.734Z,73749
2015-08-25T00:20:01.112Z,73745
2015-08-25T00:20:13.487Z,73746
2015-08-25T00:20:25.862Z,73746
2015-08-25T00:20:38.237Z,73746
2015-08-25T00:20:50.612Z,73744
2015-08-25T00:21:02.989Z,73740
2015-08-25T00:21:15.364Z,73744
2015-08-25T00:21:27.051Z,73744
2015-08-25T00:21:39.426Z,73739
2015-08-25T00:21:51.098Z,73743
2015-08-25T00:22:03.491Z,73740
2015-08-25T00:22:15.881Z,73741
2015-08-25T00:22:28.287Z,73741
2015-08-25T00:22:40.709Z,73739
2015-08-25T00:22:52.944Z,73738
2015-08-25T00:23:05.336Z,73740
2015-08-25T00:23:17.743Z,73740
2015-08-25T00:23:30.164Z,73738
2015-08-25T00:23:42.571Z,73736
2015-08-25T00:23:54.977Z,73738
2015-08-25T00:24:07.400Z,73744
2015-08-25T00:24:19.806Z,73743
2015-08-25T00:24:31.494Z,73742
2015-08-25T00:24:43.900Z,73742
2015-08-25T00:24:56.306Z,73745
2015-08-25T00:25:08.668Z,73745
2015-08-25T00:25:21.043Z,73745
2015-08-25T00:25:32.700Z,73743
2015-08-25T00:25:45.075Z,73747
2015-08-25T00:25:57.450Z,73745
2015-08-25T00:26:09.826Z,73747
2015-08-25T00:26:22.201Z,73741
2015-08-25T00:26:34.576Z,73747
2015-08-25T00:26:46.951Z,73748
2015-08-25T00:26:59.326Z,73746
2015-08-25T00:27:11.703Z,73748
2015-08-25T00:27:24.078Z,73745
2015-08-25T00:27:36.453Z,73744
2015-08-25T00:27:48.828Z,73746
2015-08-25T00:28:01.218Z,73749
2015-08-25T00:28:13.439Z,73745
2015-08-25T00:28:25.814Z,73740
2015-08-25T00:28:38.189Z,73742
2015-08-25T00:28:50.564Z,73742
2015-08-25T00:29:02.939Z,73736
2015-08-25T00:29:15.317Z,73738
2015-08-25T00:29:27.708Z,73735
2015-08-25T00:29:40.083Z,73734
2015-08-25T00:29:52.458Z,73730
2015-08-25T00:30:04.833Z,73734
2015-08-25T00:30:16.506Z,73732
2015-08-25T00:30:28.881Z,73737
2015-08-25T00:30:41.318Z,73737
2015-08-25T00:30:53.709Z,73744
2015-08-25T00:31:06.099Z,73738
2015-08-25T00:31:17.773Z,73742
2015-08-25T00:31:30.164Z,73739
2015-08-25T00:31:42.554Z,73744
2015-08-25T00:31:54.929Z,73742
2015-08-25T00:32:07.351Z,73739
2015-08-25T00:32:19.760Z,73742
2015-08-25T00:32:32.166Z,73740
2015-08-25T00:32:44.556Z,73742
2015-08-25T00:32:56.978Z,73740
2015-08-25T00:33:08.681Z,73742
2015-08-25T00:33:21.074Z,73742
2015-08-25T00:33:33.480Z,73740
2015-08-25T00:33:45.887Z,73741
2015-08-25T00:33:58.293Z,73742
2015-08-25T00:34:10.699Z,73738
2015-08-25T00:34:23.123Z,73737
2015-08-25T00:34:34.779Z,73735
2015-08-25T00:34:47.154Z,73738
2015-08-25T00:34:59.529Z,73736
2015-08-25T00:35:11.904Z,73734
2015-08-25T00:35:24.281Z,73736
2015-08-25T00:35:36.656Z,73738
2015-08-25T00:35:49.031Z,73734
2015-08-25T00:36:01.422Z,73734
2015-08-25T00:36:13.797Z,73733
2015-08-25T00:36:26.174Z,73733
2015-08-25T00:36:38.549Z,73729
2015-08-25T00:36:50.924Z,73729
2015-08-25T00:37:03.330Z,73734
2015-08-25T00:37:15.721Z,73730
2015-08-25T00:37:28.113Z,73735
2015-08-25T00:37:40.504Z,73740
2015-08-25T00:37:52.879Z,73745
2015-08-25T00:38:05.270Z,73742
2015-08-25T00:38:17.645Z,73740
2015-08-25T00:38:30.022Z,73733
2015-08-25T00:38:42.397Z,73745
2015-08-25T00:38:54.787Z,73751
2015-08-25T00:39:07.162Z,73747
2015-08-25T00:39:19.537Z,73742
2015-08-25T00:39:31.914Z,73737
2015-08-25T00:39:44.289Z,73741
2015-08-25T00:39:56.664Z,73736
2015-08-25T00:40:09.039Z,73740
2015-08-25T00:40:21.430Z,73732
2015-08-25T00:40:33.822Z,73732
2015-08-25T00:40:46.197Z,73729
2015-08-25T00:40:58.588Z,73734
2015-08-25T00:41:10.963Z,73738
2015-08-25T00:41:23.354Z,73738
2015-08-25T00:41:35.059Z,73738
2015-08-25T00:41:47.449Z,73736
2015-08-25T00:41:59.856Z,73735
2015-08-25T00:42:12.262Z,73734
2015-08-25T00:42:24.653Z,73736
2015-08-25T00:42:37.076Z,73734
2015-08-25T00:42:49.483Z,73734
2015-08-25T00:43:01.889Z,73734
2015-08-25T00:43:14.295Z,73734
2015-08-25T00:43:26.701Z,73733
2015-08-25T00:43:39.110Z,73732
2015-08-25T00:43:51.532Z,73736
2015-08-25T00:44:03.938Z,73733
2015-08-25T00:44:16.313Z,73737
2015-08-25T00:44:28.688Z,73731
2015-08-25T00:44:40.362Z,73734
2015-08-25T00:44:52.737Z,73736
2015-08-25T00:45:05.112Z,73736
2015-08-25T00:45:17.471Z,73737
2015-08-25T00:45:29.846Z,73739
2015-08-25T00:45:42.239Z,73734
2015-08-25T00:45:54.598Z,73735
2015-08-25T00:46:06.973Z,73736
2015-08-25T00:46:19.348Z,73738
2015-08-25T00:46:31.723Z,73733
2015-08-25T00:46:44.100Z,73734
2015-08-25T00:46:56.475Z,73736
2015-08-25T00:47:08.866Z,73737
2015-08-25T00:47:20.538Z,73740
2015-08-25T00:47:32.756Z,73738
2015-08-25T00:47:45.133Z,73739
2015-08-25T00:47:57.508Z,73738
2015-08-25T00:48:09.883Z,73739
2015-08-25T00:48:22.258Z,73740
2015-08-25T00:48:34.649Z,73740
2015-08-25T00:48:47.026Z,73739
2015-08-25T00:48:59.401Z,73739
2015-08-25T00:49:11.776Z,73739
2015-08-25T00:49:23.432Z,73738
2015-08-25T00:49:35.823Z,73745
2015-08-25T00:49:48.200Z,73747
2015-08-25T00:50:00.606Z,73746
2015-08-25T00:50:12.981Z,73751
2015-08-25T00:50:25.372Z,73753
2015-08-25T00:50:37.747Z,73750
2015-08-25T00:50:50.124Z,73753
2015-08-25T00:51:02.530Z,73750
2015-08-25T00:51:14.921Z,73747
2015-08-25T00:51:27.342Z,73745
2015-08-25T00:51:39.733Z,73744
2015-08-25T00:51:52.141Z,73744
2015-08-25T00:52:04.532Z,73750
2015-08-25T00:52:16.954Z,73748
2015-08-25T00:52:29.376Z,73748
2015-08-25T00:52:41.782Z,73754
2015-08-25T00:52:54.190Z,73754
2015-08-25T00:53:06.596Z,73747
2015-08-25T00:53:19.003Z,73746
2015-08-25T00:53:31.409Z,73752
2015-08-25T00:53:43.081Z,73751
2015-08-25T00:53:55.458Z,73751
2015-08-25T00:54:07.833Z,73753
2015-08-25T00:54:20.208Z,73753
2015-08-25T00:54:32.583Z,73753
2015-08-25T00:54:44.958Z,73756
2015-08-25T00:54:57.335Z,73758
2015-08-25T00:55:09.725Z,73763
2015-08-25T00:55:22.100Z,73762
2015-08-25T00:55:34.475Z,73760
2015-08-25T00:55:46.835Z,73760
2015-08-25T00:55:59.227Z,73766
2015-08-25T00:56:11.602Z,73764
2015-08-25T00:56:23.977Z,73760
2015-08-25T00:56:36.368Z,73758
2015-08-25T00:56:48.743Z,73756
2015-08-25T00:57:01.120Z,73757
2015-08-25T00:57:13.495Z,73755
2015-08-25T00:57:25.870Z,73753
2015-08-25T00:57:38.245Z,73756
2015-08-25T00:57:50.620Z,73756
2015-08-25T00:58:03.013Z,73759
2015-08-25T00:58:15.388Z,73754
2015-08-25T00:58:27.747Z,73751
2015-08-25T00:58:40.138Z,73748
2015-08-25T00:58:52.497Z,73748
2015-08-25T00:59:04.874Z,73739
2015-08-25T00:59:17.265Z,73749
2015-08-25T00:59:29.640Z,73750
2015-08-25T00:59:41.874Z,73751
2015-08-25T00:59:54.249Z,73758
2015-08-25T01:00:05.939Z,73755
2015-08-25T01:00:18.314Z,73754
2015-08-25T01:00:30.704Z,73750
2015-08-25T01:00:43.110Z,73754
2015-08-25T01:00:55.517Z,73762
2015-08-25T01:01:07.924Z,73758
2015-08-25T01:01:20.330Z,73761
2015-08-25T01:01:32.736Z,73760
2015-08-25T01:01:45.127Z,73761
2015-08-25T01:01:57.518Z,73766
2015-08-25T01:02:09.926Z,73766
2015-08-25T01:02:22.332Z,73769
2015-08-25T01:02:34.723Z,73777
2015-08-25T01:02:47.145Z,73768
2015-08-25T01:02:59.410Z,73766
2015-08-25T01:03:11.787Z,73762
2015-08-25T01:03:24.162Z,73759
2015-08-25T01:03:36.537Z,73766
2015-08-25T01:03:48.912Z,73762
2015-08-25T01:04:01.287Z,73760
2015-08-25T01:04:13.664Z,73763
2015-08-25T01:04:26.039Z,73760
2015-08-25T01:04:38.430Z,73770
2015-08-25T01:04:50.789Z,73776
2015-08-25T01:05:03.164Z,73780
2015-08-25T01:05:15.541Z,73774
2015-08-25T01:05:27.916Z,73776
2015-08-25T01:05:40.291Z,73771
2015-08-25T01:05:52.666Z,73765
2015-08-25T01:06:05.057Z,73763
2015-08-25T01:06:17.435Z,73759
2015-08-25T01:06:29.810Z,73765
2015-08-25T01:06:42.185Z,73765
2015-08-25T01:06:54.560Z,73765
2015-08-25T01:07:06.935Z,73766
2015-08-25T01:07:19.312Z,73764
2015-08-25T01:07:31.703Z,73766
2015-08-25T01:07:44.078Z,73760
2015-08-25T01:07:55.749Z,73766
2015-08-25T01:08:08.109Z,73764
2015-08-25T01:08:20.486Z,73762
2015-08-25T01:08:32.876Z,73763
2015-08-25T01:08:45.251Z,73762
2015-08-25T01:08:57.642Z,73759
2015-08-25T01:09:10.033Z,73759
2015-08-25T01:09:22.409Z,73762
2015-08-25T01:09:34.799Z,73765
2015-08-25T01:09:47.190Z,73764
2015-08-25T01:09:59.596Z,73765
2015-08-25T01:10:12.002Z,73765
2015-08-25T01:10:24.411Z,73769
2015-08-25T01:10:36.801Z,73773
2015-08-25T01:10:49.223Z,73771
2015-08-25T01:11:01.629Z,73770
2015-08-25T01:11:13.317Z,73765
2015-08-25T01:11:25.725Z,73764
2015-08-25T01:11:37.413Z,73762
2015-08-25T01:11:49.835Z,73761
2015-08-25T01:12:02.241Z,73755
2015-08-25T01:12:14.647Z,73746
2015-08-25T01:12:27.055Z,73738
2015-08-25T01:12:39.446Z,73742
2015-08-25T01:12:51.821Z,73742
2015-08-25T01:13:04.196Z,73742
2015-08-25T01:13:16.571Z,73744
2015-08-25T01:13:28.949Z,73742
2015-08-25T01:13:41.324Z,73736
2015-08-25T01:13:53.699Z,73736
2015-08-25T01:14:06.090Z,73731
2015-08-25T01:14:18.465Z,73732
2015-08-25T01:14:30.841Z,73733
2015-08-25T01:14:43.216Z,73725
2015-08-25T01:14:55.591Z,73727
2015-08-25T01:15:07.966Z,73729
2015-08-25T01:15:20.341Z,73730
2015-08-25T01:15:32.733Z,73732
2015-08-25T01:15:45.108Z,73731
2015-08-25T01:15:57.483Z,73727
2015-08-25T01:16:09.858Z,73725
2015-08-25T01:16:22.233Z,73730
2015-08-25T01:16:34.610Z,73729
2015-08-25T01:16:46.985Z,73732
2015-08-25T01:16:59.376Z,73737
2015-08-25T01:17:11.751Z,73736
2015-08-25T01:17:24.126Z,73734
2015-08-25T01:17:36.503Z,73735
2015-08-25T01:17:48.878Z,73738
2015-08-25T01:18:01.253Z,73741
2015-08-25T01:18:13.628Z,73740
2015-08-25T01:18:26.018Z,73738
2015-08-25T01:18:38.412Z,73738
2015-08-25T01:18:50.803Z,73736
2015-08-25T01:19:03.193Z,73735
2015-08-25T01:19:15.568Z,73735
2015-08-25T01:19:27.959Z,73734
2015-08-25T01:19:40.382Z,73733
2015-08-25T01:19:52.788Z,73739
2015-08-25T01:20:05.194Z,73740
2015-08-25T01:20:17.585Z,73739
2015-08-25T01:20:29.272Z,73741
2015-08-25T01:20:41.697Z,73743
2015-08-25T01:20:54.104Z,73742
2015-08-25T01:21:06.525Z,73740
2015-08-25T01:21:18.916Z,73743
2015-08-25T01:21:31.322Z,73740
2015-08-25T01:21:43.745Z,73741
2015-08-25T01:21:56.151Z,73740
2015-08-25T01:22:08.558Z,73740
2015-08-25T01:22:20.948Z,73736
2015-08-25T01:22:33.308Z,73735
2015-08-25T01:22:45.685Z,73739
2015-08-25T01:22:58.060Z,73746
2015-08-25T01:23:09.732Z,73752
2015-08-25T01:23:22.091Z,73757
2015-08-25T01:23:34.466Z,73757
2015-08-25T01:23:46.859Z,73760
2015-08-25T01:23:59.234Z,73752
2015-08-25T01:24:11.609Z,73747
2015-08-25T01:24:23.984Z,73748
2015-08-25T01:24:36.359Z,73752
2015-08-25T01:24:48.736Z,73755
2015-08-25T01:25:01.111Z,73751
2015-08-25T01:25:13.501Z,73754
2015-08-25T01:25:25.876Z,73753
2015-08-25T01:25:38.251Z,73755
2015-08-25T01:25:50.628Z,73757
2015-08-25T01:26:03.003Z,73755
2015-08-25T01:26:15.378Z,73752
2015-08-25T01:26:27.753Z,73753
2015-08-25T01:26:40.144Z,73757
2015-08-25T01:26:52.521Z,73759
2015-08-25T01:27:04.896Z,73757
2015-08-25T01:27:17.271Z,73753
2015-08-25T01:27:29.646Z,73755
2015-08-25T01:27:42.021Z,73753
2015-08-25T01:27:54.398Z,73756
2015-08-25T01:28:06.788Z,73762
2015-08-25T01:28:19.179Z,73762
2015-08-25T01:28:31.554Z,73758
2015-08-25T01:28:43.945Z,73759
2015-08-25T01:28:56.353Z,73760
2015-08-25T01:29:08.759Z,73760
2015-08-25T01:29:21.165Z,73759
2015-08-25T01:29:33.572Z,73760
2015-08-25T01:29:45.978Z,73761
2015-08-25T01:29:58.386Z,73762
2015-08-25T01:30:10.792Z,73763
2015-08-25T01:30:23.167Z,73761
2015-08-25T01:30:35.542Z,73762
2015-08-25T01:30:47.917Z,73760
2015-08-25T01:31:00.294Z,73762
2015-08-25T01:31:12.669Z,73760
2015-08-25T01:31:25.044Z,73757
2015-08-25T01:31:37.419Z,73759
2015-08-25T01:31:49.810Z,73758
2015-08-25T01:32:02.187Z,73753
2015-08-25T01:32:14.562Z,73753
2015-08-25T01:32:26.937Z,73754
2015-08-25T01:32:39.312Z,73750
2015-08-25T01:32:51.687Z,73758
2015-08-25T01:33:04.064Z,73757
2015-08-25T01:33:16.455Z,73755
2015-08-25T01:33:28.814Z,73751
2015-08-25T01:33:41.189Z,73752
2015-08-25T01:33:53.564Z,73756
2015-08-25T01:34:05.941Z,73755
2015-08-25T01:34:18.316Z,73758
2015-08-25T01:34:30.691Z,73754
2015-08-25T01:34:43.082Z,73753
2015-08-25T01:34:55.441Z,73755
2015-08-25T01:35:07.818Z,73753
2015-08-25T01:35:20.193Z,73752
2015-08-25T01:35:32.568Z,73752
2015-08-25T01:35:44.943Z,73748
2015-08-25T01:35:57.318Z,73748
2015-08-25T01:36:09.711Z,73751
2015-08-25T01:36:22.101Z,73756
2015-08-25T01:36:34.476Z,73759
2015-08-25T01:36:46.851Z,73755
2015-08-25T01:36:58.539Z,73755
2015-08-25T01:37:10.931Z,73756
2015-08-25T01:37:23.353Z,73755
2015-08-25T01:37:35.775Z,73756
2015-08-25T01:37:48.181Z,73758
2015-08-25T01:38:00.572Z,73753
2015-08-25T01:38:12.980Z,73753
2015-08-25T01:38:25.387Z,73750
2015-08-25T01:38:37.793Z,73751
2015-08-25T01:38:50.199Z,73752
2015-08-25T01:39:01.887Z,73750
2015-08-25T01:39:14.295Z,73753
2015-08-25T01:39:26.717Z,73757
2015-08-25T01:39:39.092Z,73759
2015-08-25T01:39:51.467Z,73760
2015-08-25T01:40:03.842Z,73756
2015-08-25T01:40:16.219Z,73759
2015-08-25T01:40:28.578Z,73763
2015-08-25T01:40:40.953Z,73760
2015-08-25T01:40:52.625Z,73760
2015-08-25T01:41:05.016Z,73755
2015-08-25T01:41:17.377Z,73754
2015-08-25T01:41:29.752Z,73758
2015-08-25T01:41:42.127Z,73765
2015-08-25T01:41:54.502Z,73760
2015-08-25T01:42:06.877Z,73763
2015-08-25T01:42:19.254Z,73762
2015-08-25T01:42:31.645Z,73759
2015-08-25T01:42:43.301Z,73758
2015-08-25T01:42:55.676Z,73752
2015-08-25T01:43:08.051Z,73753
2015-08-25T01:43:20.428Z,73755
2015-08-25T01:43:32.803Z,73761
2015-08-25T01:43:45.178Z,73763
2015-08-25T01:43:57.568Z,73763
2015-08-25T01:44:09.943Z,73765
2015-08-25T01:44:22.319Z,73768
2015-08-25T01:44:34.694Z,73770
2015-08-25T01:44:47.069Z,73772
2015-08-25T01:44:59.444Z,73773
2015-08-25T01:45:11.101Z,73778
2015-08-25T01:45:23.479Z,73780
2015-08-25T01:45:35.869Z,73775
2015-08-25T01:45:48.260Z,73773
2015-08-25T01:46:00.651Z,73772
2015-08-25T01:46:13.041Z,73775
2015-08-25T01:46:25.417Z,73775
2015-08-25T01:46:37.823Z,73776
2015-08-25T01:46:50.214Z,73775
2015-08-25T01:47:02.636Z,73771
2015-08-25T01:47:15.042Z,73775
2015-08-25T01:47:27.451Z,73774
2015-08-25T01:47:39.842Z,73774
2015-08-25T01:47:52.264Z,73776
2015-08-25T01:48:04.670Z,73775
2015-08-25T01:48:17.092Z,73768
2015-08-25T01:48:29.500Z,73774
2015-08-25T01:48:41.891Z,73777
2015-08-25T01:48:54.313Z,73776
2015-08-25T01:49:06.688Z,73781
2015-08-25T01:49:19.063Z,73778
2015-08-25T01:49:31.440Z,73783
2015-08-25T01:49:43.815Z,73784
2015-08-25T01:49:56.190Z,73776
2015-08-25T01:50:08.549Z,73774
2015-08-25T01:50:20.924Z,73770
2015-08-25T01:50:33.300Z,73769
2015-08-25T01:50:45.691Z,73772
2015-08-25T01:50:58.066Z,73767
2015-08-25T01:51:10.441Z,73770
2015-08-25T01:51:22.816Z,73764
2015-08-25T01:51:35.194Z,73768
2015-08-25T01:51:46.866Z,73763
2015-08-25T01:51:58.538Z,73762
2015-08-25T01:52:10.913Z,73764
2015-08-25T01:52:23.288Z,73760
2015-08-25T01:52:35.664Z,73757
2015-08-25T01:52:48.039Z,73765
2015-08-25T01:53:00.414Z,73773
2015-08-25T01:53:12.789Z,73777
2015-08-25T01:53:25.164Z,73763
2015-08-25T01:53:37.556Z,73765
2015-08-25T01:53:49.931Z,73766
2015-08-25T01:54:02.306Z,73766
2015-08-25T01:54:14.712Z,73775
2015-08-25T01:54:27.087Z,73770
2015-08-25T01:54:39.464Z,73759
2015-08-25T01:54:51.839Z,73775
2015-08-25T01:55:04.246Z,73775
2015-08-25T01:55:16.621Z,73776
2015-08-25T01:55:29.011Z,73775
2015-08-25T01:55:41.388Z,73777
2015-08-25T01:55:53.779Z,73777
2015-08-25T01:56:06.201Z,73780
2015-08-25T01:56:18.591Z,73775
2015-08-25T01:56:31.013Z,73775
2015-08-25T01:56:42.703Z,73775
2015-08-25T01:56:55.125Z,73777
2015-08-25T01:57:07.515Z,73781
2015-08-25T01:57:19.922Z,73776
2015-08-25T01:57:32.328Z,73772
2015-08-25T01:57:44.752Z,73777
2015-08-25T01:57:57.220Z,73773
2015-08-25T01:58:09.595Z,73774
2015-08-25T01:58:21.955Z,73774
2015-08-25T01:58:34.330Z,73770
2015-08-25T01:58:46.707Z,73771
2015-08-25T01:58:59.082Z,73773
2015-08-25T01:59:11.457Z,73766
2015-08-25T01:59:23.832Z,73773
2015-08-25T01:59:36.207Z,73771
2015-08-25T01:59:48.584Z,73769
2015-08-25T02:00:00.959Z,73766
2015-08-25T02:00:13.334Z,73764
2015-08-25T02:00:25.709Z,73765
2015-08-25T02:00:38.099Z,73767
2015-08-25T02:00:50.476Z,73773
2015-08-25T02:01:02.851Z,73772
2015-08-25T02:01:15.242Z,73767
2015-08-25T02:01:27.617Z,73771
2015-08-25T02:01:39.992Z,73771
2015-08-25T02:01:52.386Z,73768
2015-08-25T02:02:04.761Z,73752
2015-08-25T02:02:17.136Z,73743
2015-08-25T02:02:29.511Z,73743
2015-08-25T02:02:41.901Z,73750
2015-08-25T02:02:54.277Z,73755
2015-08-25T02:03:06.652Z,73756
2015-08-25T02:03:19.012Z,73762
2015-08-25T02:03:31.387Z,73759
2015-08-25T02:03:43.059Z,73748
2015-08-25T02:03:55.436Z,73753
2015-08-25T02:04:07.842Z,73756
2015-08-25T02:04:20.217Z,73750
2015-08-25T02:04:32.607Z,73754
2015-08-25T02:04:44.982Z,73749
2015-08-25T02:04:57.359Z,73749
2015-08-25T02:05:09.781Z,73763
2015-08-25T02:05:21.469Z,73763
2015-08-25T02:05:33.891Z,73760
2015-08-25T02:05:46.281Z,73755
2015-08-25T02:05:58.690Z,73744
2015-08-25T02:06:11.096Z,73739
2015-08-25T02:06:23.502Z,73749
2015-08-25T02:06:35.908Z,73755
2015-08-25T02:06:48.330Z,73761
2015-08-25T02:07:00.738Z,73757
2015-08-25T02:07:13.129Z,73759
2015-08-25T02:07:25.535Z,73759
2015-08-25T02:07:37.942Z,73751
2015-08-25T02:07:50.317Z,73755
2015-08-25T02:08:02.694Z,73765
2015-08-25T02:08:15.069Z,73769
2015-08-25T02:08:27.444Z,73766
2015-08-25T02:08:39.819Z,73769
2015-08-25T02:08:52.194Z,73765
2015-08-25T02:09:04.571Z,73763
2015-08-25T02:09:16.961Z,73764
2015-08-25T02:09:29.336Z,73765
2015-08-25T02:09:41.711Z,73767
2015-08-25T02:09:54.102Z,73768
2015-08-25T02:10:06.479Z,73756
2015-08-25T02:10:18.854Z,73757
2015-08-25T02:10:31.229Z,73764
2015-08-25T02:10:43.619Z,73765
2015-08-25T02:10:55.979Z,73759
2015-08-25T02:11:08.356Z,73749
2015-08-25T02:11:20.731Z,73742
2015-08-25T02:11:33.106Z,73749
2015-08-25T02:11:45.481Z,73751
2015-08-25T02:11:57.856Z,73752
2015-08-25T02:12:10.248Z,73747
2015-08-25T02:12:22.623Z,73757
2015-08-25T02:12:34.998Z,73759
2015-08-25T02:12:47.373Z,73750
2015-08-25T02:12:59.733Z,73742
2015-08-25T02:13:12.110Z,73741
2015-08-25T02:13:24.485Z,73744
2015-08-25T02:13:36.875Z,73752
2015-08-25T02:13:49.250Z,73753
2015-08-25T02:14:01.641Z,73756
2015-08-25T02:14:14.034Z,73756
2015-08-25T02:14:26.409Z,73749
2015-08-25T02:14:38.815Z,73743
2015-08-25T02:14:51.206Z,73747
2015-08-25T02:15:03.627Z,73747
2015-08-25T02:15:16.020Z,73753
2015-08-25T02:15:28.426Z,73756
2015-08-25T02:15:40.833Z,73767
2015-08-25T02:15:53.239Z,73765
2015-08-25T02:16:05.645Z,73762
2015-08-25T02:16:18.053Z,73752
2015-08-25T02:16:30.460Z,73752
2015-08-25T02:16:42.866Z,73746
2015-08-25T02:16:55.303Z,73744
2015-08-25T02:17:07.663Z,73745
2015-08-25T02:17:20.055Z,73740
2015-08-25T02:17:32.415Z,73743
2015-08-25T02:17:44.805Z,73755
2015-08-25T02:17:57.165Z,73763
2015-08-25T02:18:09.540Z,73765
2015-08-25T02:18:21.917Z,73768
2015-08-25T02:18:34.292Z,73770
2015-08-25T02:18:46.667Z,73769
2015-08-25T02:18:59.042Z,73764
2015-08-25T02:19:11.417Z,73764
2015-08-25T02:19:23.794Z,73763
2015-08-25T02:19:36.169Z,73755
2015-08-25T02:19:48.544Z,73753
2015-08-25T02:20:00.919Z,73751
2015-08-25T02:20:13.309Z,73755
2015-08-25T02:20:25.685Z,73757
2015-08-25T02:20:38.060Z,73751
2015-08-25T02:20:50.420Z,73759
2015-08-25T02:21:02.795Z,73752
2015-08-25T02:21:15.170Z,73739
2015-08-25T02:21:27.548Z,73743
2015-08-25T02:21:39.923Z,73751
2015-08-25T02:21:52.298Z,73758
2015-08-25T02:22:03.970Z,73757
2015-08-25T02:22:16.345Z,73744
2015-08-25T02:22:28.722Z,73736
2015-08-25T02:22:41.097Z,73745
2015-08-25T02:22:53.487Z,73747
2015-08-25T02:23:05.878Z,73752
2015-08-25T02:23:18.268Z,73757
2015-08-25T02:23:30.645Z,73757
2015-08-25T02:23:43.020Z,73758
2015-08-25T02:23:55.411Z,73756
2015-08-25T02:24:07.817Z,73756
2015-08-25T02:24:20.224Z,73755
2015-08-25T02:24:32.646Z,73753
2015-08-25T02:24:45.068Z,73758
2015-08-25T02:24:57.459Z,73758
2015-08-25T02:25:09.850Z,73756
2015-08-25T02:25:22.271Z,73756
2015-08-25T02:25:34.681Z,73755
2015-08-25T02:25:47.087Z,73754
2015-08-25T02:25:59.478Z,73757
2015-08-25T02:26:11.884Z,73756
2015-08-25T02:26:24.274Z,73758
2015-08-25T02:26:36.650Z,73760
2015-08-25T02:26:49.010Z,73760
2015-08-25T02:27:01.385Z,73755
2015-08-25T02:27:13.760Z,73756
2015-08-25T02:27:26.135Z,73760
2015-08-25T02:27:38.513Z,73758
2015-08-25T02:27:50.888Z,73759
2015-08-25T02:28:03.263Z,73763
2015-08-25T02:28:15.638Z,73760
2015-08-25T02:28:28.013Z,73752
2015-08-25T02:28:40.390Z,73761
2015-08-25T02:28:52.765Z,73756
2015-08-25T02:29:05.140Z,73763
2015-08-25T02:29:17.515Z,73763
2015-08-25T02:29:29.905Z,73767
2015-08-25T02:29:41.564Z,73765
2015-08-25T02:29:53.939Z,73762
2015-08-25T02:30:06.314Z,73762
2015-08-25T02:30:18.689Z,73763
2015-08-25T02:30:31.064Z,73765
2015-08-25T02:30:43.441Z,73765
2015-08-25T02:30:55.675Z,73768
2015-08-25T02:31:08.050Z,73764
2015-08-25T02:31:20.409Z,73761
2015-08-25T02:31:32.784Z,73763
2015-08-25T02:31:45.160Z,73764
2015-08-25T02:31:57.535Z,73759
2015-08-25T02:32:09.910Z,73759
2015-08-25T02:32:21.582Z,73759
2015-08-25T02:32:33.973Z,73760
2015-08-25T02:32:46.351Z,73759
2015-08-25T02:32:58.742Z,73757
2015-08-25T02:33:11.117Z,73755
2015-08-25T02:33:23.492Z,73760
2015-08-25T02:33:35.913Z,73760
2015-08-25T02:33:48.337Z,73761
2015-08-25T02:34:00.728Z,73761
2015-08-25T02:34:13.119Z,73755
2015-08-25T02:34:25.540Z,73756
2015-08-25T02:34:37.931Z,73756
2015-08-25T02:34:50.339Z,73755
2015-08-25T02:35:02.730Z,73756
2015-08-25T02:35:14.433Z,73756
2015-08-25T02:35:26.824Z,73750
2015-08-25T02:35:39.246Z,73753
2015-08-25T02:35:51.653Z,73754
2015-08-25T02:36:04.028Z,73753
2015-08-25T02:36:16.403Z,73754
2015-08-25T02:36:28.778Z,73752
2015-08-25T02:36:41.137Z,73745
2015-08-25T02:36:53.514Z,73743
2015-08-25T02:37:05.186Z,73747
2015-08-25T02:37:17.545Z,73751
2015-08-25T02:37:29.936Z,73752
2015-08-25T02:37:42.311Z,73746
2015-08-25T02:37:54.689Z,73744
2015-08-25T02:38:07.048Z,73749
2015-08-25T02:38:19.423Z,73753
2015-08-25T02:38:31.798Z,73746
2015-08-25T02:38:44.173Z,73750
2015-08-25T02:38:56.549Z,73749